sensor_id;sensor_type;location;lat;lon;timestamp;pressure;altitude;pressure_sealevel;temperature;humidity
68489;BME280;55481;48.764;8.936;2023-03-26T00:02:13;96540;;;6.8;75
68489;BME280;55481;48.764;8.936;2023-03-26T00:04:31;96540;;;6.7;75.5
68489;BME280;55481;48.764;8.936;2023-03-26T00:07:02;96530;;;6.7;75.5
68489;BME280;55481;48.764;8.936;2023-03-26T00:09:33;96530;;;6.7;75.5
68489;BME280;55481;48.764;8.936;2023-03-26T00:16:58;96540;;;6.7;75
68489;BME280;55481;48.764;8.936;2023-03-26T00:19:29;96540;;;6.7;75
68489;BME280;55481;48.764;8.936;2023-03-26T00:22:00;96530;;;6.8;75
68489;BME280;55481;48.764;8.936;2023-03-26T00:24:31;96540;;;6.9;74.5
68489;BME280;55481;48.764;8.936;2023-03-26T00:27:01;96540;;;6.9;74.5
68489;BME280;55481;48.764;8.936;2023-03-26T00:29:32;96540;;;6.9;74.5
68489;BME280;55481;48.764;8.936;2023-03-26T00:32:03;96540;;;6.9;74.5
68489;BME280;55481;48.764;8.936;2023-03-26T00:34:33;96530;;;7;74.5
68489;BME280;55481;48.764;8.936;2023-03-26T00:37:04;96530;;;7.1;74.5
68489;BME280;55481;48.764;8.936;2023-03-26T00:42:06;96520;;;7.1;74.5
68489;BME280;55481;48.764;8.936;2023-03-26T00:44:45;96520;;;7.1;74.5
68489;BME280;55481;48.764;8.936;2023-03-26T00:47:15;96520;;;7.1;74.5
68489;BME280;55481;48.764;8.936;2023-03-26T00:49:51;96520;;;7;75
68489;BME280;55481;48.764;8.936;2023-03-26T00:52:17;96510;;;7;75
68489;BME280;55481;48.764;8.936;2023-03-26T00:57:11;96500;;;7;75
68489;BME280;55481;48.764;8.936;2023-03-26T01:04:45;96500;;;7;75
68489;BME280;55481;48.764;8.936;2023-03-26T01:07:15;96490;;;6.9;75
68489;BME280;55481;48.764;8.936;2023-03-26T01:12:18;96480;;;6.9;75.5
68489;BME280;55481;48.764;8.936;2023-03-26T01:17:24;96470;;;6.9;75.5
68489;BME280;55481;48.764;8.936;2023-03-26T01:19:57;96460;;;6.8;75.5
68489;BME280;55481;48.764;8.936;2023-03-26T01:22:26;96460;;;6.8;75.5
68489;BME280;55481;48.764;8.936;2023-03-26T01:24:50;96450;;;6.8;75.5
68489;BME280;55481;48.764;8.936;2023-03-26T01:32:24;96450;;;6.6;76
68489;BME280;55481;48.764;8.936;2023-03-26T01:34:57;96450;;;6.6;76
68489;BME280;55481;48.764;8.936;2023-03-26T01:37:25;96440;;;6.6;76
68489;BME280;55481;48.764;8.936;2023-03-26T01:39:56;96440;;;6.6;75.5
68489;BME280;55481;48.764;8.936;2023-03-26T01:49:58;96420;;;6.5;76
68489;BME280;55481;48.764;8.936;2023-03-26T01:52:28;96410;;;6.5;76
68489;BME280;55481;48.764;8.936;2023-03-26T01:58:17;96410;;;6.4;76
68489;BME280;55481;48.764;8.936;2023-03-26T02:00:17;96410;;;6.4;76
68489;BME280;55481;48.764;8.936;2023-03-26T02:02:45;96400;;;6.5;76
68489;BME280;55481;48.764;8.936;2023-03-26T02:05:17;96390;;;6.5;76
68489;BME280;55481;48.764;8.936;2023-03-26T02:07:51;96380;;;6.6;76
68489;BME280;55481;48.764;8.936;2023-03-26T02:10:23;96370;;;6.6;76
68489;BME280;55481;48.764;8.936;2023-03-26T02:12:56;96370;;;6.6;76
68489;BME280;55481;48.764;8.936;2023-03-26T02:15:13;96360;;;6.6;76
68489;BME280;55481;48.764;8.936;2023-03-26T02:17:43;96360;;;6.6;76
68489;BME280;55481;48.764;8.936;2023-03-26T02:20:14;96350;;;6.6;76
68489;BME280;55481;48.764;8.936;2023-03-26T02:22:44;96350;;;6.6;76
68489;BME280;55481;48.764;8.936;2023-03-26T02:25:15;96350;;;6.6;76
68489;BME280;55481;48.764;8.936;2023-03-26T02:27:38;96360;;;6.6;76
68489;BME280;55481;48.764;8.936;2023-03-26T02:30:18;96350;;;6.6;76
68489;BME280;55481;48.764;8.936;2023-03-26T02:32:49;96360;;;6.5;76
68489;BME280;55481;48.764;8.936;2023-03-26T02:35:18;96360;;;6.5;76
68489;BME280;55481;48.764;8.936;2023-03-26T02:40:06;96350;;;6.5;76
68489;BME280;55481;48.764;8.936;2023-03-26T02:42:38;96350;;;6.4;76
68489;BME280;55481;48.764;8.936;2023-03-26T02:45:08;96350;;;6.4;76
68489;BME280;55481;48.764;8.936;2023-03-26T02:47:38;96340;;;6.5;76
68489;BME280;55481;48.764;8.936;2023-03-26T02:50:09;96340;;;6.5;76
68489;BME280;55481;48.764;8.936;2023-03-26T02:52:40;96340;;;6.5;76
68489;BME280;55481;48.764;8.936;2023-03-26T02:55:12;96340;;;6.5;76
68489;BME280;55481;48.764;8.936;2023-03-26T03:05:20;96310;;;6.6;76
68489;BME280;55481;48.764;8.936;2023-03-26T03:07:50;96300;;;6.6;76
68489;BME280;55481;48.764;8.936;2023-03-26T03:10:21;96290;;;6.6;76
68489;BME280;55481;48.764;8.936;2023-03-26T03:12:45;96290;;;6.6;76
68489;BME280;55481;48.764;8.936;2023-03-26T03:22:48;96270;;;6.6;76
68489;BME280;55481;48.764;8.936;2023-03-26T03:25:23;96260;;;6.6;76.5
68489;BME280;55481;48.764;8.936;2023-03-26T03:32:51;96240;;;6.8;76
68489;BME280;55481;48.764;8.936;2023-03-26T03:38:06;96250;;;6.7;76
68489;BME280;55481;48.764;8.936;2023-03-26T03:40:36;96250;;;6.7;76.5
68489;BME280;55481;48.764;8.936;2023-03-26T03:42:59;96240;;;6.7;76.5
68489;BME280;55481;48.764;8.936;2023-03-26T03:45:30;96250;;;6.6;76.5
68489;BME280;55481;48.764;8.936;2023-03-26T03:48:01;96240;;;6.7;76.5
68489;BME280;55481;48.764;8.936;2023-03-26T03:50:38;96240;;;6.7;76.5
68489;BME280;55481;48.764;8.936;2023-03-26T03:58:04;96230;;;6.8;76
68489;BME280;55481;48.764;8.936;2023-03-26T04:00:35;96220;;;6.9;76
68489;BME280;55481;48.764;8.936;2023-03-26T04:03:07;96220;;;6.9;76
68489;BME280;55481;48.764;8.936;2023-03-26T04:05:37;96210;;;6.9;76
68489;BME280;55481;48.764;8.936;2023-03-26T04:08:08;96210;;;6.9;76
68489;BME280;55481;48.764;8.936;2023-03-26T04:10:39;96210;;;6.9;76
68489;BME280;55481;48.764;8.936;2023-03-26T04:13:11;96210;;;6.8;76
68489;BME280;55481;48.764;8.936;2023-03-26T04:15:41;96210;;;6.9;76
68489;BME280;55481;48.764;8.936;2023-03-26T04:18:12;96210;;;6.8;76
68489;BME280;55481;48.764;8.936;2023-03-26T04:20:49;96200;;;6.9;76.5
68489;BME280;55481;48.764;8.936;2023-03-26T04:23:21;96190;;;6.8;76
68489;BME280;55481;48.764;8.936;2023-03-26T04:25:46;96180;;;6.8;76.5
68489;BME280;55481;48.764;8.936;2023-03-26T04:28:23;96170;;;6.8;76
68489;BME280;55481;48.764;8.936;2023-03-26T04:30:47;96160;;;6.8;76.5
68489;BME280;55481;48.764;8.936;2023-03-26T04:35:48;96170;;;6.7;76.5
68489;BME280;55481;48.764;8.936;2023-03-26T04:38:19;96160;;;6.6;76.5
68489;BME280;55481;48.764;8.936;2023-03-26T04:40:50;96160;;;6.6;77
68489;BME280;55481;48.764;8.936;2023-03-26T04:43:15;96160;;;6.6;76.5
68489;BME280;55481;48.764;8.936;2023-03-26T04:45:45;96150;;;6.6;76.5
68489;BME280;55481;48.764;8.936;2023-03-26T04:50:47;96140;;;6.6;76.5
68489;BME280;55481;48.764;8.936;2023-03-26T04:53:18;96130;;;6.7;76.5
68489;BME280;55481;48.764;8.936;2023-03-26T04:55:50;96140;;;6.7;76.5
68489;BME280;55481;48.764;8.936;2023-03-26T04:58:19;96130;;;6.7;76.5
68489;BME280;55481;48.764;8.936;2023-03-26T05:00:58;96140;;;6.7;76.5
68489;BME280;55481;48.764;8.936;2023-03-26T05:03:28;96130;;;6.7;76.5
68489;BME280;55481;48.764;8.936;2023-03-26T05:05:58;96130;;;6.7;76.5
68489;BME280;55481;48.764;8.936;2023-03-26T05:08:29;96130;;;6.7;76.5
68489;BME280;55481;48.764;8.936;2023-03-26T05:13:24;96120;;;6.8;76.5
68489;BME280;55481;48.764;8.936;2023-03-26T05:15:55;96110;;;6.8;76.5
68489;BME280;55481;48.764;8.936;2023-03-26T05:18:25;96100;;;6.9;76
68489;BME280;55481;48.764;8.936;2023-03-26T05:20:56;96100;;;6.8;76.5
68489;BME280;55481;48.764;8.936;2023-03-26T05:23:27;96090;;;6.8;76.5
68489;BME280;55481;48.764;8.936;2023-03-26T05:25:57;96080;;;6.8;76.5
68489;BME280;55481;48.764;8.936;2023-03-26T05:28:28;96080;;;6.8;76.5
68489;BME280;55481;48.764;8.936;2023-03-26T05:30:59;96080;;;6.7;76.5
68489;BME280;55481;48.764;8.936;2023-03-26T05:41:21;96070;;;6.8;76.5
68489;BME280;55481;48.764;8.936;2023-03-26T05:43:58;96060;;;6.9;76.5
68489;BME280;55481;48.764;8.936;2023-03-26T05:46:15;96050;;;6.8;76.5
68489;BME280;55481;48.764;8.936;2023-03-26T05:51:10;96030;;;6.7;76.5
68489;BME280;55481;48.764;8.936;2023-03-26T05:53:41;96030;;;6.7;76.5
68489;BME280;55481;48.764;8.936;2023-03-26T05:56:12;96020;;;6.7;76.5
68489;BME280;55481;48.764;8.936;2023-03-26T05:58:36;96020;;;6.7;76.5
68489;BME280;55481;48.764;8.936;2023-03-26T06:06:09;96010;;;6.7;76.5
68489;BME280;55481;48.764;8.936;2023-03-26T06:08:38;96000;;;6.8;76.5
68489;BME280;55481;48.764;8.936;2023-03-26T06:11:09;96000;;;6.8;76.5
68489;BME280;55481;48.764;8.936;2023-03-26T06:13:40;95990;;;6.9;76.5
68489;BME280;55481;48.764;8.936;2023-03-26T06:16:11;95990;;;6.9;76.5
68489;BME280;55481;48.764;8.936;2023-03-26T06:26:26;95980;;;6.8;76.5
68489;BME280;55481;48.764;8.936;2023-03-26T06:28:57;95980;;;6.8;76.5
68489;BME280;55481;48.764;8.936;2023-03-26T06:31:21;95980;;;6.9;76.5
68489;BME280;55481;48.764;8.936;2023-03-26T06:33:53;95980;;;7;76
68489;BME280;55481;48.764;8.936;2023-03-26T06:38:47;95960;;;7.1;76
68489;BME280;55481;48.764;8.936;2023-03-26T06:48:50;95940;;;7.2;76
68489;BME280;55481;48.764;8.936;2023-03-26T06:51:21;95940;;;7.1;76.5
68489;BME280;55481;48.764;8.936;2023-03-26T06:53:52;95930;;;7;76.5
68489;BME280;55481;48.764;8.936;2023-03-26T06:58:59;95930;;;7;77
68489;BME280;55481;48.764;8.936;2023-03-26T07:01:31;95920;;;7.1;127.5
68489;BME280;55481;48.764;8.936;2023-03-26T07:06:25;95920;;;7.1;76.5
68489;BME280;55481;48.764;8.936;2023-03-26T07:08:57;95910;;;7.1;76.5
68489;BME280;55481;48.764;8.936;2023-03-26T07:11:28;95920;;;7.1;76.5
68489;BME280;55481;48.764;8.936;2023-03-26T07:13:58;95910;;;7.1;76.5
68489;BME280;55481;48.764;8.936;2023-03-26T07:21:30;95900;;;7;76.5
68489;BME280;55481;48.764;8.936;2023-03-26T07:24:01;95890;;;7;77
68489;BME280;55481;48.764;8.936;2023-03-26T07:29:12;95880;;;6.8;77
68489;BME280;55481;48.764;8.936;2023-03-26T07:31:42;95870;;;6.8;77.5
68489;BME280;55481;48.764;8.936;2023-03-26T07:34:45;95870;;;6.8;77.5
68489;BME280;55481;48.764;8.936;2023-03-26T07:36:43;95860;;;6.7;77.5
68489;BME280;55481;48.764;8.936;2023-03-26T07:41:50;95860;;;6.5;78
68489;BME280;55481;48.764;8.936;2023-03-26T07:44:47;95860;;;6.6;78
68489;BME280;55481;48.764;8.936;2023-03-26T07:46:43;95860;;;6.5;77.5
68489;BME280;55481;48.764;8.936;2023-03-26T07:49:21;95860;;;6.6;77.5
68489;BME280;55481;48.764;8.936;2023-03-26T07:54:17;95850;;;6.7;77.5
68489;BME280;55481;48.764;8.936;2023-03-26T07:57:04;95840;;;6.7;77
68489;BME280;55481;48.764;8.936;2023-03-26T07:59:20;95830;;;6.8;77
68489;BME280;55481;48.764;8.936;2023-03-26T08:04:23;95830;;;6.6;77.5
68489;BME280;55481;48.764;8.936;2023-03-26T08:06:58;95830;;;6.7;77
68489;BME280;55481;48.764;8.936;2023-03-26T08:11:51;95810;;;6.7;77
68489;BME280;55481;48.764;8.936;2023-03-26T08:14:23;95820;;;6.7;77
68489;BME280;55481;48.764;8.936;2023-03-26T08:16:50;95820;;;6.8;77
68489;BME280;55481;48.764;8.936;2023-03-26T08:19:37;95810;;;6.9;76.5
68489;BME280;55481;48.764;8.936;2023-03-26T08:21:52;95810;;;6.9;77
68489;BME280;55481;48.764;8.936;2023-03-26T08:24:21;95800;;;7.1;76
68489;BME280;55481;48.764;8.936;2023-03-26T08:26:52;95810;;;7;76.5
68489;BME280;55481;48.764;8.936;2023-03-26T08:29:24;95810;;;7.1;76.5
68489;BME280;55481;48.764;8.936;2023-03-26T08:43:02;95780;;;7.2;76.5
68489;BME280;55481;48.764;8.936;2023-03-26T08:45:13;95780;;;7.3;76.5
68489;BME280;55481;48.764;8.936;2023-03-26T08:47:17;95790;;;7.2;76.5
68489;BME280;55481;48.764;8.936;2023-03-26T08:49:39;95790;;;7.3;76.5
68489;BME280;55481;48.764;8.936;2023-03-26T08:52:36;95790;;;7.3;76.5
68489;BME280;55481;48.764;8.936;2023-03-26T08:57:11;95790;;;7.9;75.5
68489;BME280;55481;48.764;8.936;2023-03-26T08:59:54;95780;;;8.8;74
68489;BME280;55481;48.764;8.936;2023-03-26T09:09:58;95790;;;8.2;76
68489;BME280;55481;48.764;8.936;2023-03-26T09:12:21;95780;;;8.2;76
68489;BME280;55481;48.764;8.936;2023-03-26T09:17:16;95780;;;8.8;75
68489;BME280;55481;48.764;8.936;2023-03-26T09:19:59;95780;;;8.9;74.5
68489;BME280;55481;48.764;8.936;2023-03-26T09:22:17;95790;;;8.9;74.5
68489;BME280;55481;48.764;8.936;2023-03-26T09:24:56;95780;;;8.9;75
68489;BME280;55481;48.764;8.936;2023-03-26T09:27:37;95780;;;9.3;74
68489;BME280;55481;48.764;8.936;2023-03-26T09:30:16;95780;;;9.4;74
68489;BME280;55481;48.764;8.936;2023-03-26T09:35:24;95780;;;9.2;75
68489;BME280;55481;48.764;8.936;2023-03-26T09:37:23;95780;;;9.3;75
68489;BME280;55481;48.764;8.936;2023-03-26T09:39:52;95780;;;9.5;74.5
68489;BME280;55481;48.764;8.936;2023-03-26T09:47:34;95770;;;9.8;74.5
68489;BME280;55481;48.764;8.936;2023-03-26T09:57:28;95770;;;10.2;74.5
68489;BME280;55481;48.764;8.936;2023-03-26T10:02:33;95760;;;10.2;74.5
68489;BME280;55481;48.764;8.936;2023-03-26T10:04:58;95760;;;9.9;75.5
68489;BME280;55481;48.764;8.936;2023-03-26T10:10:00;95760;;;10.8;73.5
68489;BME280;55481;48.764;8.936;2023-03-26T10:12:36;95750;;;11.5;72
68489;BME280;55481;48.764;8.936;2023-03-26T10:14:55;95760;;;11.4;72.5
68489;BME280;55481;48.764;8.936;2023-03-26T10:22:35;95750;;;11.1;74
68489;BME280;55481;48.764;8.936;2023-03-26T10:25:01;95750;;;11;74
68489;BME280;55481;48.764;8.936;2023-03-26T10:27:36;95750;;;11.6;73
68489;BME280;55481;48.764;8.936;2023-03-26T10:30:27;95730;;;12.2;71.5
68489;BME280;55481;48.764;8.936;2023-03-26T10:32:45;95730;;;12.3;71.5
68489;BME280;55481;48.764;8.936;2023-03-26T10:37:40;95730;;;12.8;71.5
68489;BME280;55481;48.764;8.936;2023-03-26T10:40:04;95740;;;12.5;72.5
68489;BME280;55481;48.764;8.936;2023-03-26T10:42:40;95740;;;12.8;72
68489;BME280;55481;48.764;8.936;2023-03-26T10:50:10;95750;;;12.6;73.5
68489;BME280;55481;48.764;8.936;2023-03-26T10:52:35;95740;;;12.7;73.5
68489;BME280;55481;48.764;8.936;2023-03-26T10:55:13;95740;;;12.7;73.5
68489;BME280;55481;48.764;8.936;2023-03-26T11:00:13;95730;;;12.6;73.5
68489;BME280;55481;48.764;8.936;2023-03-26T11:05:36;95720;;;12.9;73
68489;BME280;55481;48.764;8.936;2023-03-26T11:07:49;95730;;;13;73
68489;BME280;55481;48.764;8.936;2023-03-26T11:12:45;95730;;;12.6;74
68489;BME280;55481;48.764;8.936;2023-03-26T11:20:15;95720;;;13.3;72.5
68489;BME280;55481;48.764;8.936;2023-03-26T11:23:02;95730;;;13.2;73
68489;BME280;55481;48.764;8.936;2023-03-26T11:25:33;95730;;;13.1;73
68489;BME280;55481;48.764;8.936;2023-03-26T11:27:50;95730;;;12.9;73.5
68489;BME280;55481;48.764;8.936;2023-03-26T11:30:19;95730;;;13;73.5
68489;BME280;55481;48.764;8.936;2023-03-26T11:32:54;95710;;;13.1;73.5
68489;BME280;55481;48.764;8.936;2023-03-26T11:35:25;95710;;;13.5;72.5
68489;BME280;55481;48.764;8.936;2023-03-26T11:37:55;95700;;;14;71.5
68489;BME280;55481;48.764;8.936;2023-03-26T11:47:54;95690;;;17.1;67
68489;BME280;55481;48.764;8.936;2023-03-26T11:50:25;95680;;;18.7;62.5
68489;BME280;55481;48.764;8.936;2023-03-26T11:52:54;95690;;;18.8;63
68489;BME280;55481;48.764;8.936;2023-03-26T11:55:23;95690;;;18.1;65.5
68489;BME280;55481;48.764;8.936;2023-03-26T12:00:30;95690;;;18.8;65
68489;BME280;55481;48.764;8.936;2023-03-26T12:03:04;95700;;;16.7;70
68489;BME280;55481;48.764;8.936;2023-03-26T12:05:33;95710;;;15;74
68489;BME280;55481;48.764;8.936;2023-03-26T12:08:16;95710;;;14.9;75.5
68489;BME280;55481;48.764;8.936;2023-03-26T12:10:41;95700;;;16;73
68489;BME280;55481;48.764;8.936;2023-03-26T12:13:42;95690;;;18.4;66
68489;BME280;55481;48.764;8.936;2023-03-26T12:15:49;95700;;;15.5;72.5
68489;BME280;55481;48.764;8.936;2023-03-26T12:20:36;95700;;;13.4;77.5
68489;BME280;55481;48.764;8.936;2023-03-26T12:23:12;95690;;;13.6;78
68489;BME280;55481;48.764;8.936;2023-03-26T12:28:21;95710;;;15;72
68489;BME280;55481;48.764;8.936;2023-03-26T12:31:01;95720;;;13.2;76.5
68489;BME280;55481;48.764;8.936;2023-03-26T12:33:18;95720;;;12.7;78.5
68489;BME280;55481;48.764;8.936;2023-03-26T12:35:46;95690;;;16.9;68.5
68489;BME280;55481;48.764;8.936;2023-03-26T12:40:45;95670;;;19.2;63.5
68489;BME280;55481;48.764;8.936;2023-03-26T12:45:44;95660;;;17.3;68.5
68489;BME280;55481;48.764;8.936;2023-03-26T12:48:13;95660;;;18.9;67
68489;BME280;55481;48.764;8.936;2023-03-26T12:51:47;95650;;;19.5;65
68489;BME280;55481;48.764;8.936;2023-03-26T12:53:20;95640;;;20.3;64
68489;BME280;55481;48.764;8.936;2023-03-26T12:56:00;95650;;;20;65
68489;BME280;55481;48.764;8.936;2023-03-26T13:00:51;95650;;;18.2;70
68489;BME280;55481;48.764;8.936;2023-03-26T13:03:21;95660;;;15.4;76
68489;BME280;55481;48.764;8.936;2023-03-26T13:05:53;95670;;;15.9;74.5
68489;BME280;55481;48.764;8.936;2023-03-26T13:09:33;95670;;;14.7;77
68489;BME280;55481;48.764;8.936;2023-03-26T13:13:45;95650;;;16.7;72.5
68489;BME280;55481;48.764;8.936;2023-03-26T13:15:58;95650;;;15.4;74
68489;BME280;55481;48.764;8.936;2023-03-26T13:23:37;95640;;;16.1;71.5
68489;BME280;55481;48.764;8.936;2023-03-26T13:25:57;95640;;;14.9;75
68489;BME280;55481;48.764;8.936;2023-03-26T13:28:41;95630;;;14.3;76
68489;BME280;55481;48.764;8.936;2023-03-26T13:31:13;95640;;;13.7;76.5
68489;BME280;55481;48.764;8.936;2023-03-26T13:33:36;95640;;;13.3;77.5
68489;BME280;55481;48.764;8.936;2023-03-26T13:38:31;95630;;;14;75
68489;BME280;55481;48.764;8.936;2023-03-26T13:41:01;95620;;;13.9;74.5
68489;BME280;55481;48.764;8.936;2023-03-26T13:43:39;95630;;;13.8;75
68489;BME280;55481;48.764;8.936;2023-03-26T13:46:09;95630;;;13.7;75
68489;BME280;55481;48.764;8.936;2023-03-26T13:51:22;95640;;;13.7;74
68489;BME280;55481;48.764;8.936;2023-03-26T13:53:31;95630;;;13.8;74
68489;BME280;55481;48.764;8.936;2023-03-26T13:56:08;95630;;;13.8;73.5
68489;BME280;55481;48.764;8.936;2023-03-26T13:58:43;95630;;;13.5;74.5
68489;BME280;55481;48.764;8.936;2023-03-26T14:03:54;95650;;;12.7;75.5
68489;BME280;55481;48.764;8.936;2023-03-26T14:06:23;95660;;;12.3;76
68489;BME280;55481;48.764;8.936;2023-03-26T14:11:06;95690;;;11.4;77.5
68489;BME280;55481;48.764;8.936;2023-03-26T14:13:37;95690;;;10.6;78.5
68489;BME280;55481;48.764;8.936;2023-03-26T14:18:42;95750;;;8.4;80.5
68489;BME280;55481;48.764;8.936;2023-03-26T14:28:46;95750;;;7.2;83.5
68489;BME280;55481;48.764;8.936;2023-03-26T14:36:13;95740;;;7.4;82
68489;BME280;55481;48.764;8.936;2023-03-26T14:38:46;95750;;;7.5;81.5
68489;BME280;55481;48.764;8.936;2023-03-26T14:41:17;95740;;;7.8;80.5
68489;BME280;55481;48.764;8.936;2023-03-26T14:43:51;95740;;;8;79.5
68489;BME280;55481;48.764;8.936;2023-03-26T14:47:19;95750;;;8.2;78.5
68489;BME280;55481;48.764;8.936;2023-03-26T14:51:27;95740;;;8.1;78.5
68489;BME280;55481;48.764;8.936;2023-03-26T14:53:58;95740;;;7.9;78.5
68489;BME280;55481;48.764;8.936;2023-03-26T14:56:35;95740;;;7.9;78.5
68489;BME280;55481;48.764;8.936;2023-03-26T15:01:26;95740;;;7.7;78.5
68489;BME280;55481;48.764;8.936;2023-03-26T15:03:56;95750;;;7.5;78.5
68489;BME280;55481;48.764;8.936;2023-03-26T15:06:45;95750;;;7.3;79
68489;BME280;55481;48.764;8.936;2023-03-26T15:08:50;95750;;;7.2;79
68489;BME280;55481;48.764;8.936;2023-03-26T15:11:20;95770;;;7.1;79
68489;BME280;55481;48.764;8.936;2023-03-26T15:14:02;95780;;;7;79
68489;BME280;55481;48.764;8.936;2023-03-26T15:29:21;95780;;;5.8;81
68489;BME280;55481;48.764;8.936;2023-03-26T15:36:32;95740;;;5.7;80
68489;BME280;55481;48.764;8.936;2023-03-26T15:39:06;95740;;;5.7;80
68489;BME280;55481;48.764;8.936;2023-03-26T15:41:38;95750;;;5.9;80
68489;BME280;55481;48.764;8.936;2023-03-26T15:44:11;95740;;;6.1;79
68489;BME280;55481;48.764;8.936;2023-03-26T15:51:29;95730;;;6.6;77.5
68489;BME280;55481;48.764;8.936;2023-03-26T15:53:59;95730;;;6.6;77.5
68489;BME280;55481;48.764;8.936;2023-03-26T15:56:33;95740;;;6.6;77.5
68489;BME280;55481;48.764;8.936;2023-03-26T15:59:02;95730;;;6.6;78
68489;BME280;55481;48.764;8.936;2023-03-26T16:02:45;95720;;;6.6;78
68489;BME280;55481;48.764;8.936;2023-03-26T16:04:07;95720;;;6.7;77.5
68489;BME280;55481;48.764;8.936;2023-03-26T16:09:19;95720;;;6.6;78
68489;BME280;55481;48.764;8.936;2023-03-26T16:11:43;95720;;;6.9;77.5
68489;BME280;55481;48.764;8.936;2023-03-26T16:14:10;95710;;;7;77
68489;BME280;55481;48.764;8.936;2023-03-26T16:22:01;95720;;;7;77
68489;BME280;55481;48.764;8.936;2023-03-26T16:24:19;95730;;;6.9;77.5
68489;BME280;55481;48.764;8.936;2023-03-26T16:29:16;95750;;;6.9;77.5
68489;BME280;55481;48.764;8.936;2023-03-26T16:32:15;95770;;;6.9;78
68489;BME280;55481;48.764;8.936;2023-03-26T16:34:18;95780;;;6.9;77.5
68489;BME280;55481;48.764;8.936;2023-03-26T16:41:54;95790;;;6.8;77.5
68489;BME280;55481;48.764;8.936;2023-03-26T16:44:11;95800;;;6.8;77.5
68489;BME280;55481;48.764;8.936;2023-03-26T16:46:42;95800;;;6.8;77.5
68489;BME280;55481;48.764;8.936;2023-03-26T16:49:15;95800;;;6.7;78
68489;BME280;55481;48.764;8.936;2023-03-26T16:54:19;95800;;;6.7;78
68489;BME280;55481;48.764;8.936;2023-03-26T16:59:41;95800;;;6.6;77.5
68489;BME280;55481;48.764;8.936;2023-03-26T17:01:54;95800;;;6.7;77.5
68489;BME280;55481;48.764;8.936;2023-03-26T17:04:23;95790;;;6.6;77.5
68489;BME280;55481;48.764;8.936;2023-03-26T17:06:59;95790;;;6.6;77.5
68489;BME280;55481;48.764;8.936;2023-03-26T17:09:33;95780;;;6.7;77.5
68489;BME280;55481;48.764;8.936;2023-03-26T17:12:18;95780;;;6.7;77.5
68489;BME280;55481;48.764;8.936;2023-03-26T17:19:28;95780;;;6.6;77.5
68489;BME280;55481;48.764;8.936;2023-03-26T17:22:00;95780;;;6.6;77.5
68489;BME280;55481;48.764;8.936;2023-03-26T17:26:56;95790;;;6.6;77.5
68489;BME280;55481;48.764;8.936;2023-03-26T17:34:32;95790;;;6.5;77.5
68489;BME280;55481;48.764;8.936;2023-03-26T17:36:56;95790;;;6.4;78
68489;BME280;55481;48.764;8.936;2023-03-26T17:39:46;95790;;;6.4;77.5
68489;BME280;55481;48.764;8.936;2023-03-26T17:42:09;95790;;;6.4;78
68489;BME280;55481;48.764;8.936;2023-03-26T17:44:43;95790;;;6.4;78
68489;BME280;55481;48.764;8.936;2023-03-26T17:47:05;95780;;;6.3;78
68489;BME280;55481;48.764;8.936;2023-03-26T17:49:36;95790;;;6.3;78
68489;BME280;55481;48.764;8.936;2023-03-26T17:52:21;95790;;;6.3;78
68489;BME280;55481;48.764;8.936;2023-03-26T17:54:43;95790;;;6.2;78
68489;BME280;55481;48.764;8.936;2023-03-26T17:57:12;95800;;;6.2;78
68489;BME280;55481;48.764;8.936;2023-03-26T17:59:55;95800;;;6.2;78
68489;BME280;55481;48.764;8.936;2023-03-26T18:02:17;95800;;;6.1;78
68489;BME280;55481;48.764;8.936;2023-03-26T18:07:30;95810;;;6.2;78
68489;BME280;55481;48.764;8.936;2023-03-26T18:12:31;95810;;;6.1;78
68489;BME280;55481;48.764;8.936;2023-03-26T18:15:10;95810;;;6.2;78
68489;BME280;55481;48.764;8.936;2023-03-26T18:17:06;95810;;;6.2;78
68489;BME280;55481;48.764;8.936;2023-03-26T18:19:46;95810;;;6.1;78
68489;BME280;55481;48.764;8.936;2023-03-26T18:22:11;95820;;;6.1;78
68489;BME280;55481;48.764;8.936;2023-03-26T18:29:42;95820;;;6.1;78
68489;BME280;55481;48.764;8.936;2023-03-26T18:35:14;95810;;;6.2;78
68489;BME280;55481;48.764;8.936;2023-03-26T18:37:26;95810;;;6.1;77.5
68489;BME280;55481;48.764;8.936;2023-03-26T18:42:18;95810;;;5.9;78.5
68489;BME280;55481;48.764;8.936;2023-03-26T18:44:50;95820;;;5.9;78.5
68489;BME280;55481;48.764;8.936;2023-03-26T18:47:21;95820;;;5.8;78.5
68489;BME280;55481;48.764;8.936;2023-03-26T18:49:46;95820;;;5.9;78.5
68489;BME280;55481;48.764;8.936;2023-03-26T18:57:19;95810;;;6;78
68489;BME280;55481;48.764;8.936;2023-03-26T18:59:47;95810;;;6;78
68489;BME280;55481;48.764;8.936;2023-03-26T19:02:19;95810;;;5.9;78
68489;BME280;55481;48.764;8.936;2023-03-26T19:07:26;95820;;;5.9;78
68489;BME280;55481;48.764;8.936;2023-03-26T19:09:56;95820;;;5.8;78
68489;BME280;55481;48.764;8.936;2023-03-26T19:14:54;95820;;;5.7;78.5
68489;BME280;55481;48.764;8.936;2023-03-26T19:17:25;95820;;;5.7;78.5
68489;BME280;55481;48.764;8.936;2023-03-26T19:24:56;95800;;;5.6;78.5
68489;BME280;55481;48.764;8.936;2023-03-26T19:27:25;95810;;;5.6;78.5
68489;BME280;55481;48.764;8.936;2023-03-26T19:29:56;95820;;;5.6;78.5
68489;BME280;55481;48.764;8.936;2023-03-26T19:34:58;95820;;;5.4;78.5
68489;BME280;55481;48.764;8.936;2023-03-26T19:37:47;95810;;;5.4;78.5
68489;BME280;55481;48.764;8.936;2023-03-26T19:40:22;95810;;;5.3;78.5
68489;BME280;55481;48.764;8.936;2023-03-26T19:42:37;95800;;;5.2;79
68489;BME280;55481;48.764;8.936;2023-03-26T19:45:12;95790;;;5.2;78.5
68489;BME280;55481;48.764;8.936;2023-03-26T19:47:40;95790;;;5.2;78.5
68489;BME280;55481;48.764;8.936;2023-03-26T19:50:19;95790;;;5.2;78.5
68489;BME280;55481;48.764;8.936;2023-03-26T19:57:55;95790;;;5.3;78
68489;BME280;55481;48.764;8.936;2023-03-26T20:00:19;95790;;;5.3;78
68489;BME280;55481;48.764;8.936;2023-03-26T20:05:17;95790;;;5.2;78
68489;BME280;55481;48.764;8.936;2023-03-26T20:07:44;95790;;;5.2;78.5
68489;BME280;55481;48.764;8.936;2023-03-26T20:10:14;95790;;;5.2;78
68489;BME280;55481;48.764;8.936;2023-03-26T20:12:45;95790;;;5.1;78.5
68489;BME280;55481;48.764;8.936;2023-03-26T20:15:17;95790;;;5.1;78.5
68489;BME280;55481;48.764;8.936;2023-03-26T20:17:47;95790;;;5;78.5
68489;BME280;55481;48.764;8.936;2023-03-26T20:20:25;95790;;;5;78.5
68489;BME280;55481;48.764;8.936;2023-03-26T20:22:55;95800;;;5;78.5
68489;BME280;55481;48.764;8.936;2023-03-26T20:30:27;95810;;;5;78.5
68489;BME280;55481;48.764;8.936;2023-03-26T20:32:58;95800;;;5.1;78
68489;BME280;55481;48.764;8.936;2023-03-26T20:35:28;95800;;;5;78